Time;durP1;ratioP1;P1;durP2;ratioP2;P2;SDS_P1;SDS_P2;PMS_P1;PMS_P2;Temp;Humidity;BMP_temperature;BMP_pressure;BME280_temperature;BME280_humidity;BME280_pressure;Samples;Min_cycle;Max_cycle;Signal;HPM_P1;HPM_P2
2022/06/12 00:00:34;;;;;;;5.45;1.55;;;;;;;21.66;51.23;102206.28;5072349;28;20056;-71
2022/06/12 00:03:01;;;;;;;5.03;1.40;;;;;;;21.65;51.58;102205.47;5072707;28;20495;-71
2022/06/12 00:05:35;;;;;;;4.25;1.60;;;;;;;21.64;51.37;102203.75;5072049;28;20489;-71
2022/06/12 00:08:02;;;;;;;5.18;1.50;;;;;;;21.65;51.21;102201.94;5072339;28;20028;-71
2022/06/12 00:10:30;;;;;;;4.65;1.50;;;;;;;21.64;51.24;102192.31;5072315;28;20024;-70
2022/06/12 00:13:00;;;;;;;5.60;1.55;;;;;;;21.63;51.15;102196.75;5072479;28;20020;-71
2022/06/12 00:15:28;;;;;;;3.97;1.33;;;;;;;21.63;51.22;102201.22;5071682;28;20107;-71
2022/06/12 00:17:54;;;;;;;3.70;1.33;;;;;;;21.63;51.15;102195.91;5072798;28;20027;-70
2022/06/12 00:20:27;;;;;;;5.47;1.50;;;;;;;21.61;50.85;102193.38;5071673;28;20029;-71
2022/06/12 00:22:55;;;;;;;4.72;1.50;;;;;;;21.61;51.08;102192.53;5072762;28;20016;-70
2022/06/12 00:25:24;;;;;;;5.45;1.85;;;;;;;21.60;51.50;102191.66;5072032;28;20122;-70
2022/06/12 00:27:49;;;;;;;4.47;1.70;;;;;;;21.60;50.97;102190.84;5072101;28;20043;-71
2022/06/12 00:30:23;;;;;;;3.80;1.35;;;;;;;21.60;51.07;102194.31;5072015;28;20472;-71
2022/06/12 00:32:52;;;;;;;4.50;1.58;;;;;;;21.59;50.79;102190.00;5072506;28;20025;-71
2022/06/12 00:35:27;;;;;;;4.50;1.60;;;;;;;21.59;51.24;102192.66;5071758;28;20072;-70
2022/06/12 00:37:53;;;;;;;4.53;1.75;;;;;;;21.59;51.16;102199.75;5072583;28;20093;-71
2022/06/12 00:40:20;;;;;;;6.20;1.80;;;;;;;21.57;51.17;102191.94;5071951;28;20461;-70
2022/06/12 00:42:58;;;;;;;5.10;1.58;;;;;;;21.56;51.30;102190.22;5071726;28;20024;-70
2022/06/12 00:45:42;;;;;;;4.75;1.70;;;;;;;21.56;51.20;102193.72;5071823;28;20384;-71
2022/06/12 00:48:11;;;;;;;5.72;1.70;;;;;;;21.58;51.01;102198.06;5072159;28;20480;-70
2022/06/12 00:50:40;;;;;;;4.53;1.80;;;;;;;21.55;51.30;102199.13;5071606;28;20514;-70
2022/06/12 00:53:13;;;;;;;4.50;1.70;;;;;;;21.55;51.22;102199.13;5072262;28;20479;-70
2022/06/12 00:55:50;;;;;;;4.47;1.75;;;;;;;21.54;51.05;102198.28;5071718;28;20047;-70
2022/06/12 00:58:20;;;;;;;4.65;1.58;;;;;;;21.53;51.24;102199.25;5072118;28;20391;-70
2022/06/12 01:00:50;;;;;;;5.28;1.90;;;;;;;21.53;51.24;102198.41;5072029;28;20031;-70
2022/06/12 01:03:16;;;;;;;4.07;1.50;;;;;;;21.52;51.23;102192.28;5071359;28;20028;-72
2022/06/12 01:08:28;;;;;;;3.65;1.55;;;;;;;21.50;51.35;102188.03;5071697;28;20040;-70
2022/06/12 01:10:57;;;;;;;4.90;1.85;;;;;;;21.51;51.04;102193.22;5071764;28;20020;-72
2022/06/12 01:13:36;;;;;;;5.38;2.00;;;;;;;21.51;50.91;102192.38;5071592;28;20464;-72
2022/06/12 01:16:07;;;;;;;3.80;1.30;;;;;;;21.49;50.78;102195.16;5071796;28;20578;-72
2022/06/12 01:18:41;;;;;;;6.32;1.80;;;;;;;21.48;50.95;102198.75;5071208;28;20112;-72
2022/06/12 01:21:42;;;;;;;5.38;1.60;;;;;;;21.48;51.11;102189.94;5072300;28;20105;-72
2022/06/12 01:24:45;;;;;;;4.00;1.55;;;;;;;21.47;51.03;102189.06;5074183;28;20442;-72
2022/06/12 01:27:42;;;;;;;4.30;1.58;;;;;;;21.46;50.89;102187.38;5075044;28;20072;-72
2022/06/12 01:30:19;;;;;;;4.13;1.70;;;;;;;21.46;50.96;102194.47;5075332;28;20039;-72
2022/06/12 01:32:59;;;;;;;4.53;1.65;;;;;;;21.45;50.97;102195.47;5074908;28;20471;-72
2022/06/12 01:35:52;;;;;;;4.88;1.70;;;;;;;21.44;50.95;102191.94;5075311;28;20028;-72
2022/06/12 01:38:26;;;;;;;5.60;1.70;;;;;;;21.43;50.94;102190.25;5074574;28;20039;-72
2022/06/12 01:40:57;;;;;;;5.68;2.63;;;;;;;21.43;51.10;102189.41;5075556;28;20051;-72
2022/06/12 01:43:47;;;;;;;5.68;1.80;;;;;;;21.43;51.12;102184.09;5074781;28;20044;-72
2022/06/12 01:46:23;;;;;;;5.22;1.92;;;;;;;21.41;51.18;102184.22;5074486;28;20062;-72
2022/06/12 01:49:05;;;;;;;5.35;1.90;;;;;;;21.41;51.14;102175.41;5075362;28;20031;-72
2022/06/12 01:51:57;;;;;;;4.47;1.75;;;;;;;21.40;51.17;102179.06;5074599;28;20154;-72
2022/06/12 01:54:29;;;;;;;5.15;1.85;;;;;;;21.40;51.25;102181.69;5074817;28;20483;-72
2022/06/12 01:57:09;;;;;;;5.43;1.75;;;;;;;21.39;51.00;102180.84;5074838;28;20509;-72
2022/06/12 01:59:49;;;;;;;4.97;1.85;;;;;;;21.38;50.99;102180.00;5074520;28;20119;-72
2022/06/12 02:02:21;;;;;;;4.10;1.63;;;;;;;21.37;51.31;102178.28;5074535;28;20075;-72
2022/06/12 02:04:52;;;;;;;4.45;1.70;;;;;;;21.36;50.92;102168.66;5074587;28;20452;-72
2022/06/12 02:07:45;;;;;;;6.82;2.17;;;;;;;21.37;51.25;102174.81;5073948;28;20089;-72
2022/06/12 02:10:26;;;;;;;4.90;1.90;;;;;;;21.36;51.02;102181.94;5074559;28;20082;-72
2022/06/12 02:13:36;;;;;;;4.25;1.63;;;;;;;21.35;50.99;102182.88;5074229;28;20021;-72
2022/06/12 02:16:06;;;;;;;5.55;1.90;;;;;;;21.35;51.04;102182.03;5054025;28;20040;-72
2022/06/12 02:18:42;;;;;;;3.92;1.50;;;;;;;21.33;51.05;102181.28;5074105;28;20058;-72
2022/06/12 02:21:24;;;;;;;6.00;1.70;;;;;;;21.31;51.04;102189.34;5073198;28;20036;-72
2022/06/12 02:23:59;;;;;;;3.45;1.50;;;;;;;21.32;50.83;102191.06;5074718;28;20031;-72
2022/06/12 02:26:48;;;;;;;5.25;1.80;;;;;;;21.31;50.97;102192.00;5073841;28;20131;-72
2022/06/12 02:29:18;;;;;;;4.93;1.77;;;;;;;21.29;50.70;102188.63;5063012;28;20032;-72
2022/06/12 02:31:48;;;;;;;4.15;1.52;;;;;;;21.30;50.78;102184.16;5074277;28;20060;-72
2022/06/12 02:34:24;;;;;;;4.88;1.55;;;;;;;21.29;50.84;102183.31;5073252;28;20115;-72
2022/06/12 02:36:55;;;;;;;3.75;1.70;;;;;;;21.28;51.18;102175.47;5074351;28;20032;-72
2022/06/12 02:39:37;;;;;;;6.28;1.85;;;;;;;21.28;51.07;102175.47;5073668;28;20025;-72
2022/06/12 02:42:08;;;;;;;3.80;1.85;;;;;;;21.25;50.86;102170.41;5073803;28;20039;-72
2022/06/12 02:44:53;;;;;;;4.88;1.70;;;;;;;21.25;51.06;102170.41;5074296;28;20078;-72
2022/06/12 02:47:23;;;;;;;5.40;1.70;;;;;;;21.26;50.93;102172.09;5073549;28;20028;-72
2022/06/12 02:49:52;;;;;;;4.70;1.60;;;;;;;21.25;51.01;102171.25;5073403;28;20379;-72
2022/06/12 02:52:32;;;;;;;3.00;1.30;;;;;;;21.24;51.01;102163.41;5073587;28;20383;-72
2022/06/12 02:55:24;;;;;;;5.22;1.77;;;;;;;21.13;51.08;102150.97;5073213;28;20137;-72
2022/06/12 02:57:52;;;;;;;4.68;1.80;;;;;;;21.23;50.79;102167.03;5042869;28;20112;-72
2022/06/12 03:00:24;;;;;;;4.55;1.52;;;;;;;21.22;50.99;102162.69;5073164;28;20579;-72
2022/06/12 03:03:17;;;;;;;4.70;1.80;;;;;;;21.22;50.70;102160.91;5073348;28;20078;-72
2022/06/12 03:05:47;;;;;;;4.25;1.60;;;;;;;21.21;51.18;102153.88;5073921;28;20040;-72
2022/06/12 03:08:18;;;;;;;4.88;1.70;;;;;;;21.21;50.76;102164.50;5073053;28;20028;-72
2022/06/12 03:10:52;;;;;;;4.35;1.80;;;;;;;21.20;50.84;102168.09;5073219;28;20055;-72
2022/06/12 03:13:18;;;;;;;4.90;1.70;;;;;;;21.19;51.25;102167.25;5074757;28;20036;-73
2022/06/12 03:15:49;;;;;;;4.20;1.40;;;;;;;21.19;51.07;102172.56;5075601;28;20028;-73
2022/06/12 03:18:21;;;;;;;5.07;1.40;;;;;;;21.19;50.94;102174.38;5075526;28;20063;-73
2022/06/12 03:20:54;;;;;;;5.85;1.60;;;;;;;21.19;50.83;102171.72;5076367;28;20038;-72
2022/06/12 03:23:41;;;;;;;4.63;1.75;;;;;;;21.17;50.92;102176.28;5074704;28;20453;-72
2022/06/12 03:26:14;;;;;;;4.22;1.60;;;;;;;21.17;50.63;102173.63;5074007;28;20536;-72
2022/06/12 03:28:56;;;;;;;5.13;1.73;;;;;;;21.16;51.08;102180.75;5073330;28;20067;-72
2022/06/12 03:32:05;;;;;;;3.58;1.58;;;;;;;21.15;50.81;102178.19;5072463;28;20074;-72
2022/06/12 03:35:01;;;;;;;5.07;1.65;;;;;;;21.14;50.88;102174.72;5072252;28;20048;-72
2022/06/12 03:37:48;;;;;;;10.35;1.58;;;;;;;21.14;50.77;102168.53;5072225;28;20107;-72
2022/06/12 03:40:34;;;;;;;3.90;1.20;;;;;;;21.13;50.90;102173.00;5072798;28;20036;-72
2022/06/12 03:43:15;;;;;;;4.90;1.75;;;;;;;21.13;50.84;102180.13;5072811;28;20035;-72
2022/06/12 03:45:57;;;;;;;5.05;2.00;;;;;;;21.13;50.91;102185.44;5072019;28;20078;-72
2022/06/12 03:48:35;;;;;;;3.90;1.50;;;;;;;21.12;50.90;102183.72;5072675;28;20058;-72
2022/06/12 03:51:14;;;;;;;5.15;2.22;;;;;;;21.12;50.87;102184.56;5072919;28;20021;-72
2022/06/12 03:54:00;;;;;;;4.47;1.65;;;;;;;21.11;51.05;102174.94;5073071;28;20025;-72
2022/06/12 03:59:29;;;;;;;3.08;1.20;;;;;;;21.10;50.90;102183.00;5072417;28;20043;-72
2022/06/12 04:01:55;;;;;;;5.25;1.63;;;;;;;21.10;50.70;102181.19;5072968;28;20066;-72
2022/06/12 04:04:24;;;;;;;3.83;1.55;;;;;;;21.10;50.86;102177.69;5072235;28;20468;-72
2022/06/12 04:06:51;;;;;;;4.43;1.60;;;;;;;21.09;50.94;102178.63;5072096;28;20360;-72
2022/06/12 04:09:22;;;;;;;4.43;1.65;;;;;;;21.08;50.86;102180.44;5072252;28;20103;-72
2022/06/12 04:12:15;;;;;;;4.25;1.50;;;;;;;21.08;50.78;102177.81;5072580;28;20017;-72
2022/06/12 04:14:46;;;;;;;4.60;1.63;;;;;;;21.07;50.78;102178.75;5064411;28;20480;-72
2022/06/12 04:17:11;;;;;;;3.30;1.40;;;;;;;21.07;50.81;102173.44;5072078;28;20039;-72
2022/06/12 04:22:46;;;;;;;3.58;1.20;;;;;;;21.07;50.94;102184.06;5072334;28;20032;-72
2022/06/12 04:25:37;;;;;;;4.25;1.45;;;;;;;21.06;50.86;102185.03;5071120;28;20047;-72
2022/06/12 04:28:04;;;;;;;5.82;1.50;;;;;;;21.06;50.95;102182.38;5071958;28;20446;-72
2022/06/12 04:30:38;;;;;;;6.38;1.60;;;;;;;21.06;50.92;102181.50;5072074;28;20056;-72
2022/06/12 04:33:22;;;;;;;7.13;1.70;;;;;;;21.05;50.99;102190.44;5072184;28;20425;-72
2022/06/12 04:35:57;;;;;;;4.53;1.53;;;;;;;21.05;50.80;102187.78;5072522;28;20037;-72
2022/06/12 04:38:26;;;;;;;3.28;1.33;;;;;;;21.04;50.88;102194.88;5071725;28;20107;-72
2022/06/12 04:40:52;;;;;;;4.35;1.80;;;;;;;21.04;50.73;102194.03;5072050;28;20020;-72
2022/06/12 04:43:17;;;;;;;4.32;1.55;;;;;;;21.04;51.08;102200.19;5072218;28;20025;-72
2022/06/12 04:45:44;;;;;;;4.70;1.60;;;;;;;21.03;50.90;102198.50;5072137;28;20032;-72
2022/06/12 04:48:15;;;;;;;4.57;1.35;;;;;;;21.01;50.82;102189.78;5071663;28;20031;-72
2022/06/12 04:50:41;;;;;;;3.42;1.38;;;;;;;21.02;50.88;102194.16;5072331;28;20070;-72
2022/06/12 04:53:06;;;;;;;3.90;1.45;;;;;;;21.02;50.79;102194.16;5072277;28;20111;-72
2022/06/12 04:55:37;;;;;;;3.83;1.70;;;;;;;21.02;50.87;102191.50;5071517;28;20032;-72
2022/06/12 04:58:05;;;;;;;3.92;1.50;;;;;;;21.02;50.71;102189.69;5073235;28;20033;-72
2022/06/12 05:00:31;;;;;;;4.43;1.65;;;;;;;21.01;50.85;102190.66;5075649;28;20087;-72
2022/06/12 05:02:56;;;;;;;3.30;1.30;;;;;;;21.02;50.87;102189.69;5075521;28;20036;-72
2022/06/12 05:05:21;;;;;;;4.30;1.60;;;;;;;21.02;50.78;102189.69;5075874;28;20028;-72
2022/06/12 05:07:47;;;;;;;4.28;1.40;;;;;;;21.03;50.73;102187.91;5075641;28;20752;-71
2022/06/12 05:10:18;;;;;;;3.90;1.40;;;;;;;21.04;50.86;102191.38;5074859;28;20090;-72
2022/06/12 05:12:43;;;;;;;6.45;1.63;;;;;;;21.03;50.63;102185.25;5076001;28;20024;-72
2022/06/12 05:15:12;;;;;;;3.20;1.38;;;;;;;21.01;50.59;102180.06;5075248;28;20039;-72
2022/06/12 05:17:38;;;;;;;4.13;1.60;;;;;;;21.04;50.64;102189.56;5075183;28;20029;-72
2022/06/12 05:20:04;;;;;;;4.75;1.63;;;;;;;21.04;50.77;102194.03;5075582;28;20381;-72
2022/06/12 05:22:29;;;;;;;5.65;1.48;;;;;;;21.04;50.83;102196.69;5075349;28;20021;-72
2022/06/12 05:24:55;;;;;;;6.63;1.70;;;;;;;21.02;50.68;102194.97;5075000;28;20434;-71
2022/06/12 05:27:23;;;;;;;4.63;1.77;;;;;;;21.04;50.86;102186.94;5074956;28;20320;-72
2022/06/12 05:29:49;;;;;;;4.15;1.52;;;;;;;21.03;50.73;102182.59;5074907;28;20368;-72
2022/06/12 05:32:22;;;;;;;4.50;1.60;;;;;;;21.04;50.71;102186.09;5075231;28;20023;-72
2022/06/12 05:34:50;;;;;;;5.70;1.73;;;;;;;21.02;50.77;102187.03;5075196;28;20055;-72
2022/06/12 05:37:22;;;;;;;6.30;1.42;;;;;;;21.03;50.64;102190.56;5074478;28;20111;-72
2022/06/12 05:39:47;;;;;;;4.70;1.40;;;;;;;21.04;50.80;102191.38;5075430;28;20025;-71
2022/06/12 05:42:13;;;;;;;4.35;1.50;;;;;;;21.04;50.66;102192.22;5074769;28;20035;-72
2022/06/12 05:44:39;;;;;;;4.80;1.48;;;;;;;21.02;50.90;102189.69;5074669;28;20031;-72
2022/06/12 05:47:05;;;;;;;3.13;1.17;;;;;;;21.02;50.69;102196.81;5074982;28;20033;-71
2022/06/12 05:49:30;;;;;;;5.80;1.42;;;;;;;21.04;50.50;102191.38;5074820;28;20027;-72
2022/06/12 05:51:56;;;;;;;6.97;1.80;;;;;;;21.03;50.98;102203.81;5074339;28;20110;-72
2022/06/12 05:54:21;;;;;;;6.50;1.58;;;;;;;21.04;50.86;102196.69;5074789;28;20047;-72
2022/06/12 05:56:48;;;;;;;3.83;1.30;;;;;;;21.04;50.59;102197.53;5074796;28;20044;-72
2022/06/12 05:59:13;;;;;;;3.88;1.58;;;;;;;21.03;50.75;102198.50;5073869;28;20028;-72
2022/06/12 06:01:40;;;;;;;4.45;1.60;;;;;;;21.04;50.93;102202.00;5074840;28;20099;-72
2022/06/12 06:04:07;;;;;;;4.03;1.35;;;;;;;21.04;51.08;102202.81;5074852;28;20066;-72
2022/06/12 06:06:37;;;;;;;5.07;1.45;;;;;;;21.04;51.28;102200.19;5074080;28;20045;-72
2022/06/12 06:09:05;;;;;;;6.50;1.30;;;;;;;21.04;50.87;102202.81;5074536;28;20029;-71
2022/06/12 06:11:30;;;;;;;6.13;1.35;;;;;;;21.04;51.07;102197.53;5074145;28;20463;-72
2022/06/12 06:13:56;;;;;;;3.90;1.48;;;;;;;21.06;51.03;102208.00;5073983;28;20040;-72
2022/06/12 06:16:22;;;;;;;4.15;1.65;;;;;;;21.07;51.01;102212.38;5073901;28;20104;-72
2022/06/12 06:18:47;;;;;;;5.32;1.58;;;;;;;21.06;51.05;102214.19;5074356;28;20529;-71
2022/06/12 06:21:14;;;;;;;5.10;1.60;;;;;;;21.06;51.03;102213.31;5073843;28;20033;-72
2022/06/12 06:23:40;;;;;;;6.07;2.10;;;;;;;21.07;50.99;102210.56;5074173;28;20508;-74
2022/06/12 06:26:05;;;;;;;5.50;1.63;;;;;;;21.10;51.11;102214.81;5073446;28;20044;-72
2022/06/12 06:28:32;;;;;;;5.68;1.35;;;;;;;21.10;51.40;102210.34;5074066;28;20511;-73
2022/06/12 06:30:58;;;;;;;4.43;1.20;;;;;;;21.11;51.06;102208.53;5074008;28;20048;-74
2022/06/12 06:33:23;;;;;;;8.43;1.73;;;;;;;21.13;51.01;102206.63;5073596;28;20110;-75
2022/06/12 06:35:52;;;;;;;11.02;2.70;;;;;;;21.13;51.43;102211.94;5074147;28;20369;-74
2022/06/12 06:38:17;;;;;;;11.07;1.80;;;;;;;21.14;51.41;102211.81;5073709;28;20062;-74
2022/06/12 06:40:43;;;;;;;6.43;1.65;;;;;;;21.14;51.23;102217.13;5073469;28;20020;-74
2022/06/12 06:43:09;;;;;;;8.88;1.60;;;;;;;21.14;51.16;102216.25;5073745;28;20068;-73
2022/06/12 06:48:22;;;;;;;8.02;2.08;;;;;;;21.14;51.01;102222.41;5073321;28;20040;-74
2022/06/12 06:50:48;;;;;;;8.05;1.80;;;;;;;21.15;51.13;102218.78;5073791;28;20104;-73
2022/06/12 06:53:14;;;;;;;6.30;1.83;;;;;;;21.15;51.04;102224.09;5073519;28;20059;-73
2022/06/12 06:55:41;;;;;;;8.57;1.80;;;;;;;21.15;51.19;102225.91;5073232;28;20048;-73
2022/06/12 06:58:13;;;;;;;7.32;1.88;;;;;;;21.14;51.03;102227.72;5073597;28;20032;-72
2022/06/12 07:00:39;;;;;;;7.20;1.70;;;;;;;21.15;50.95;102223.25;5073505;28;20025;-73
2022/06/12 07:03:06;;;;;;;7.80;2.00;;;;;;;21.15;51.10;102224.09;5073241;28;20020;-73
2022/06/12 07:05:32;;;;;;;9.35;1.63;;;;;;;21.16;51.06;102228.44;5072967;28;20028;-73
2022/06/12 07:07:58;;;;;;;11.00;1.90;;;;;;;21.17;51.11;102226.63;5073501;28;20020;-74
2022/06/12 07:10:25;;;;;;;9.43;2.22;;;;;;;21.16;51.32;102217.84;5071408;28;20029;-74
2022/06/12 07:12:51;;;;;;;5.65;1.58;;;;;;;21.16;51.07;102217.84;5073317;28;20103;-72
2022/06/12 07:15:18;;;;;;;7.10;1.70;;;;;;;21.17;51.02;102226.63;5072693;28;20028;-72
2022/06/12 07:17:45;;;;;;;7.50;2.10;;;;;;;21.17;51.15;102221.34;5073329;28;20025;-72
2022/06/12 07:20:12;;;;;;;6.78;2.42;;;;;;;21.19;51.04;102222.09;5072198;28;20028;-72
2022/06/12 07:22:37;;;;;;;5.80;1.60;;;;;;;21.18;51.09;102225.69;5072551;28;20021;-72
2022/06/12 07:25:03;;;;;;;8.25;1.67;;;;;;;21.16;51.10;102222.31;5072984;28;20021;-72
2022/06/12 07:27:29;;;;;;;5.85;1.65;;;;;;;21.19;50.98;102230.88;5072380;28;20053;-71
2022/06/12 07:29:54;;;;;;;9.75;1.80;;;;;;;21.19;51.12;102230.03;5072724;28;20033;-71
2022/06/12 07:32:19;;;;;;;5.17;1.80;;;;;;;21.20;51.13;102226.41;5073108;28;20020;-71
2022/06/12 07:34:45;;;;;;;6.88;2.22;;;;;;;21.22;52.12;102232.47;5072768;28;20269;-71
2022/06/12 07:37:10;;;;;;;7.80;2.55;;;;;;;21.24;52.86;102232.34;5072236;28;20056;-72
2022/06/12 07:39:35;;;;;;;9.10;2.93;;;;;;;21.25;53.30;102234.88;5072990;28;20479;-72
2022/06/12 07:42:01;;;;;;;8.70;3.58;;;;;;;21.27;54.06;102229.47;5072959;28;20273;-72
2022/06/12 07:44:29;;;;;;;10.13;4.30;;;;;;;21.28;54.50;102226.69;5072227;28;20020;-71
2022/06/12 07:46:56;;;;;;;14.60;4.80;;;;;;;21.30;54.79;102226.59;5072835;28;20028;-72
2022/06/12 07:49:23;;;;;;;12.15;4.63;;;;;;;21.32;55.21;102235.28;5072141;28;20062;-73
2022/06/12 07:51:49;;;;;;;13.00;5.50;;;;;;;21.35;55.59;102235.06;5072322;28;20110;-73
2022/06/12 07:54:15;;;;;;;14.25;5.68;;;;;;;21.37;56.09;102227.84;5072348;28;20383;-73
2022/06/12 07:56:45;;;;;;;14.65;4.43;;;;;;;21.36;55.55;102232.31;5072765;28;20029;-74
2022/06/12 07:59:10;;;;;;;13.13;4.30;;;;;;;21.38;55.37;102233.03;5072006;28;20024;-74
2022/06/12 08:01:36;;;;;;;13.35;4.45;;;;;;;21.38;55.52;102230.38;5072720;28;20070;-74
2022/06/12 08:04:02;;;;;;;11.82;3.97;;;;;;;21.38;55.04;102235.69;5072652;28;20447;-75
2022/06/12 08:06:28;;;;;;;9.65;3.72;;;;;;;21.40;54.87;102235.56;5071890;28;20024;-74
2022/06/12 08:08:56;;;;;;;13.27;3.60;;;;;;;21.41;54.87;102236.41;5073173;28;20426;-74
2022/06/12 08:11:22;;;;;;;11.50;3.30;;;;;;;21.41;54.84;102233.75;5072244;28;20078;-74
2022/06/12 08:13:48;;;;;;;8.00;3.25;;;;;;;21.42;54.88;102232.81;5072840;28;20024;-74
2022/06/12 08:16:13;;;;;;;11.70;2.95;;;;;;;21.42;54.30;102236.31;5072092;28;20029;-73
2022/06/12 08:18:41;;;;;;;10.88;3.10;;;;;;;21.42;54.08;102230.16;5071973;28;20021;-72
2022/06/12 08:21:10;;;;;;;9.30;3.70;;;;;;;21.42;54.02;102225.69;5072332;28;20027;-72
2022/06/12 08:23:53;;;;;;;8.30;2.67;;;;;;;21.42;53.93;102231.00;5072157;28;20483;-73
2022/06/12 08:26:24;;;;;;;9.98;2.92;;;;;;;21.43;53.87;102229.19;5071391;28;20079;-73
2022/06/12 08:28:58;;;;;;;8.73;2.30;;;;;;;21.44;54.06;102230.88;5072422;28;20156;-72
2022/06/12 08:31:25;;;;;;;;;;;;;;;21.43;53.71;102224.75;5072169;28;20452;-72
2022/06/12 08:33:54;;;;;;;11.77;2.60;;;;;;;21.42;54.00;102228.34;5075951;28;19970;-71
2022/06/12 08:36:21;;;;;;;10.57;2.50;;;;;;;21.44;53.92;102241.50;5076109;28;20023;-72
2022/06/12 08:38:50;;;;;;;15.10;2.70;;;;;;;21.44;53.95;102228.22;5076093;28;20483;-72
2022/06/12 08:41:39;;;;;;;11.57;2.70;;;;;;;21.44;53.81;102230.88;5075706;28;20471;-72
2022/06/12 08:44:15;;;;;;;10.98;3.13;;;;;;;21.44;53.92;102229.06;5076166;28;20056;-72
2022/06/12 08:46:49;;;;;;;8.10;2.25;;;;;;;21.44;53.65;102228.22;5075843;28;20111;-72
2022/06/12 08:49:43;;;;;;;7.55;2.20;;;;;;;21.45;53.57;102225.47;5076312;28;20032;-71
2022/06/12 08:52:12;;;;;;;7.20;2.15;;;;;;;21.45;53.49;102224.63;5075832;28;20111;-72
2022/06/12 08:54:44;;;;;;;8.13;2.50;;;;;;;21.45;53.51;102216.69;5075671;28;20158;-71
2022/06/12 08:57:17;;;;;;;7.40;2.25;;;;;;;21.46;53.35;102218.34;5075907;28;20028;-72
2022/06/12 08:59:47;;;;;;;8.35;1.92;;;;;;;21.45;53.47;102219.31;5076210;28;20036;-72
2022/06/12 09:02:21;;;;;;;8.00;2.25;;;;;;;21.45;53.53;102214.84;5075218;28;20403;-72
2022/06/12 09:04:47;;;;;;;9.57;2.20;;;;;;;21.47;53.16;102212.94;5075922;28;20063;-72
2022/06/12 09:07:19;;;;;;;12.40;2.30;;;;;;;21.48;53.15;102209.34;5075563;28;20056;-72
2022/06/12 09:09:51;;;;;;;7.43;2.75;;;;;;;21.48;52.94;102211.16;5075373;28;20103;-72
2022/06/12 09:12:26;;;;;;;8.57;2.30;;;;;;;21.49;53.03;102207.53;5075677;28;20027;-72
2022/06/12 09:14:54;;;;;;;8.82;1.90;;;;;;;21.51;53.00;102205.66;5075532;28;20028;-72
2022/06/12 09:17:22;;;;;;;8.23;2.10;;;;;;;21.51;53.11;102205.66;5075584;28;20032;-72
2022/06/12 09:19:56;;;;;;;7.72;2.10;;;;;;;21.52;53.08;102199.38;5075556;28;20477;-72
2022/06/12 09:22:46;;;;;;;8.52;2.10;;;;;;;21.52;52.84;102191.41;5075132;28;20059;-72
2022/06/12 09:25:36;;;;;;;6.13;2.08;;;;;;;21.53;52.83;102193.09;5075354;28;20082;-72
2022/06/12 09:28:31;;;;;;;7.32;1.60;;;;;;;21.53;52.96;102199.25;5075345;28;20028;-72
2022/06/12 09:31:12;;;;;;;5.38;1.63;;;;;;;21.53;52.82;102201.91;5075217;28;20048;-72
2022/06/12 09:34:25;;;;;;;9.52;2.58;;;;;;;21.53;52.65;102195.75;5075177;28;20056;-72
2022/06/12 09:40:20;;;;;;;6.13;2.00;;;;;;;21.55;52.62;102205.31;4994014;28;20041;-72
2022/06/12 09:43:13;;;;;;;6.63;1.90;;;;;;;21.55;52.51;102194.69;5072701;28;20037;-72
2022/06/12 09:46:23;;;;;;;5.32;1.42;;;;;;;21.56;52.51;102198.19;5075177;28;20047;-70
2022/06/12 09:49:23;;;;;;;4.45;1.63;;;;;;;21.56;52.67;102195.53;5013026;28;20029;-71
2022/06/12 09:52:23;;;;;;;6.35;1.80;;;;;;;21.57;52.58;102197.25;5074771;28;20029;-71
2022/06/12 09:55:06;;;;;;;8.57;1.80;;;;;;;21.55;52.76;102192.03;5074856;28;20028;-71
2022/06/12 09:57:38;;;;;;;6.88;1.58;;;;;;;21.56;52.52;102195.53;5074433;28;20028;-71
2022/06/12 10:00:22;;;;;;;7.07;2.03;;;;;;;21.57;52.43;102194.59;5075143;28;20032;-70
2022/06/12 10:02:52;;;;;;;8.75;1.63;;;;;;;21.58;52.48;102195.41;5074081;28;20039;-71
2022/06/12 10:05:35;;;;;;;4.22;1.70;;;;;;;21.57;52.60;102197.25;5073961;28;20027;-70
2022/06/12 10:08:43;;;;;;;6.15;2.40;;;;;;;21.59;52.76;102191.78;5074738;28;20035;-71
2022/06/12 10:11:22;;;;;;;5.93;2.20;;;;;;;21.60;52.80;102190.84;5073802;28;20036;-70
2022/06/12 10:13:54;;;;;;;4.47;1.67;;;;;;;21.61;52.67;102196.03;5074733;28;20043;-70
2022/06/12 10:16:41;;;;;;;6.18;1.80;;;;;;;21.61;52.75;102184.56;5074197;28;20021;-70
2022/06/12 10:19:16;;;;;;;7.88;2.05;;;;;;;21.62;53.25;102186.25;5074144;28;20032;-71
2022/06/12 10:21:47;;;;;;;8.63;1.75;;;;;;;21.62;53.18;102179.16;5074484;28;20029;-70
2022/06/12 10:24:15;;;;;;;6.68;1.75;;;;;;;21.65;53.37;102180.72;5074123;28;20430;-70
2022/06/12 10:26:57;;;;;;;6.75;1.88;;;;;;;21.65;53.46;102173.63;5073616;28;20496;-70
2022/06/12 10:29:24;;;;;;;6.22;1.60;;;;;;;21.66;53.84;102185.91;5073993;28;20035;-70
2022/06/12 10:32:01;;;;;;;10.00;1.83;;;;;;;21.67;53.55;102176.16;5074451;28;20468;-69
2022/06/12 10:34:29;;;;;;;7.03;1.90;;;;;;;21.67;53.28;102179.66;5073972;28;20487;-69
2022/06/12 10:37:07;;;;;;;5.32;2.00;;;;;;;21.65;53.17;102176.28;5074232;28;20021;-70
2022/06/12 10:39:34;;;;;;;6.18;1.35;;;;;;;21.66;53.03;102172.63;5073504;28;20106;-70
2022/06/12 10:42:27;;;;;;;6.20;1.60;;;;;;;21.67;53.00;102177.00;5074229;28;20025;-70
2022/06/12 10:45:19;;;;;;;4.85;1.63;;;;;;;21.67;52.85;102178.81;5073773;28;20475;-70
2022/06/12 10:47:46;;;;;;;6.57;1.60;;;;;;;21.68;52.83;102180.50;5062533;28;20036;-69
2022/06/12 10:50:26;;;;;;;5.93;1.60;;;;;;;21.67;52.46;102182.31;5073587;28;20077;-70
2022/06/12 10:53:03;;;;;;;7.68;2.15;;;;;;;21.67;52.80;102174.34;5074075;28;20024;-69
2022/06/12 10:55:42;;;;;;;5.32;1.40;;;;;;;21.68;52.88;102181.34;5072079;28;20476;-69
2022/06/12 10:58:19;;;;;;;4.90;1.60;;;;;;;21.68;52.67;102173.41;5073747;28;20601;-68
2022/06/12 11:00:50;;;;;;;6.55;1.83;;;;;;;21.68;52.88;102168.09;5073586;28;20036;-71
2022/06/12 11:03:22;;;;;;;7.25;2.00;;;;;;;21.69;53.15;102167.09;5075532;28;20016;-69
2022/06/12 11:06:11;;;;;;;6.97;1.60;;;;;;;21.71;53.33;102172.28;5073616;28;20329;-68
2022/06/12 11:09:04;;;;;;;5.00;1.45;;;;;;;21.70;53.34;102171.47;5073816;28;20107;-68
2022/06/12 11:11:58;;;;;;;5.22;1.55;;;;;;;21.70;53.39;102160.00;5073317;28;20033;-68
2022/06/12 11:14:48;;;;;;;5.90;1.42;;;;;;;21.70;53.21;102165.31;5072946;28;20126;-70
2022/06/12 11:17:41;;;;;;;5.50;1.58;;;;;;;21.70;53.20;102171.47;5073651;28;20047;-70
2022/06/12 11:20:21;;;;;;;6.10;1.48;;;;;;;21.71;53.42;102167.00;5073326;28;20039;-70
2022/06/12 11:22:52;;;;;;;7.03;1.42;;;;;;;21.70;53.09;102163.50;5073092;28;20031;-71
2022/06/12 11:26:10;;;;;;;4.63;1.60;;;;;;;21.69;53.40;102164.44;5072963;28;20122;-70
2022/06/12 11:28:47;;;;;;;5.57;1.70;;;;;;;21.70;53.15;102168.81;5072783;28;20032;-70
2022/06/12 11:31:34;;;;;;;6.30;1.60;;;;;;;21.71;53.35;102153.72;5072120;28;20131;-69
2022/06/12 11:34:26;;;;;;;5.32;1.60;;;;;;;21.71;53.40;102165.19;5073303;28;20029;-70
2022/06/12 11:37:04;;;;;;;5.10;1.63;;;;;;;21.71;53.18;102164.34;5072688;28;20484;-70
2022/06/12 11:39:52;;;;;;;6.70;1.83;;;;;;;21.71;53.38;102164.34;5072618;28;20456;-70
2022/06/12 11:42:51;;;;;;;6.43;1.90;;;;;;;21.71;53.27;102153.72;5072989;28;20028;-70
2022/06/12 11:45:45;;;;;;;6.00;1.55;;;;;;;21.72;53.37;102148.31;5072739;28;20028;-70
2022/06/12 11:48:55;;;;;;;5.53;1.60;;;;;;;21.72;53.20;102142.16;5043126;28;20036;-70
2022/06/12 11:51:43;;;;;;;5.43;1.55;;;;;;;21.72;53.14;102144.81;5072263;28;20111;-70
2022/06/12 11:54:39;;;;;;;4.78;1.50;;;;;;;21.73;53.25;102138.56;5072862;28;20078;-70
2022/06/12 11:57:16;;;;;;;7.00;1.65;;;;;;;21.74;53.33;102129.63;5073093;28;20020;-70
2022/06/12 11:59:56;;;;;;;4.78;1.60;;;;;;;21.74;53.29;102135.75;5073731;28;20055;-69
2022/06/12 12:02:34;;;;;;;5.45;1.65;;;;;;;21.75;53.46;102131.31;5072861;28;20350;-70
2022/06/12 12:05:18;;;;;;;7.22;1.90;;;;;;;21.77;53.25;102128.53;5072637;28;20059;-69
2022/06/12 12:08:14;;;;;;;5.72;1.90;;;;;;;21.77;53.38;102137.34;5072284;28;20059;-69
2022/06/12 12:11:06;;;;;;;5.82;1.50;;;;;;;21.77;53.22;102129.38;5072241;28;20571;-71
2022/06/12 12:13:41;;;;;;;5.03;1.63;;;;;;;21.79;53.29;102127.44;5072424;28;20060;-70